Time;durP1;ratioP1;P1;durP2;ratioP2;P2;SDS_P1;SDS_P2;PMS_P1;PMS_P2;Temp;Humidity;BMP_temperature;BMP_pressure;BME280_temperature;BME280_humidity;BME280_pressure;Samples;Min_cycle;Max_cycle;Signal;HPM_P1;HPM_P2
2021/05/05 00:01:51;;;;;;;7.50;1.00;;;;;;;6.47;76.13;99316.81;4988982;28;20046;-81
2021/05/05 00:04:17;;;;;;;7.20;1.48;;;;;;;6.52;77.27;99343.22;4970953;28;20085;-82
2021/05/05 00:06:43;;;;;;;7.55;1.27;;;;;;;6.46;76.52;99337.81;5003591;28;20053;-81
2021/05/05 00:09:08;;;;;;;5.43;1.15;;;;;;;6.42;77.57;99348.53;5008078;28;20044;-79
2021/05/05 00:11:34;;;;;;;5.47;1.20;;;;;;;6.33;76.55;99322.56;4985705;28;20089;-81
2021/05/05 00:13:59;;;;;;;6.55;1.23;;;;;;;6.38;78.38;99349.00;4954989;28;20047;-81
2021/05/05 00:16:25;;;;;;;8.35;1.58;;;;;;;6.26;79.59;99345.81;4982057;28;20670;-81
2021/05/05 00:18:52;;;;;;;7.78;1.30;;;;;;;6.23;79.22;99344.34;4992827;28;20111;-81
2021/05/05 00:21:17;;;;;;;10.38;1.90;;;;;;;6.14;79.87;99334.00;4994301;28;20049;-77
2021/05/05 00:23:43;;;;;;;5.47;1.20;;;;;;;6.14;80.03;99345.28;4973715;28;20054;-78
2021/05/05 00:26:09;;;;;;;5.40;1.17;;;;;;;6.19;79.64;99347.41;4947292;28;20081;-78
2021/05/05 00:28:34;;;;;;;6.88;1.70;;;;;;;6.21;79.57;99342.84;4952901;28;20757;-80
2021/05/05 00:31:00;;;;;;;8.77;1.70;;;;;;;6.27;80.63;99349.25;4948420;28;20092;-78
2021/05/05 00:33:29;;;;;;;9.25;1.40;;;;;;;6.23;80.71;99338.31;4955451;28;20057;-77
2021/05/05 00:35:55;;;;;;;7.10;1.40;;;;;;;6.24;80.75;99337.34;4971530;28;20043;-79
2021/05/05 00:38:20;;;;;;;5.40;1.20;;;;;;;6.34;78.50;99342.47;4984104;28;20038;-80
2021/05/05 00:40:46;;;;;;;2.95;0.93;;;;;;;6.32;78.02;99333.97;4995484;28;20072;-80
2021/05/05 00:43:12;;;;;;;7.03;1.00;;;;;;;6.37;78.13;99342.16;4962952;28;20092;-80
2021/05/05 00:45:37;;;;;;;4.75;1.20;;;;;;;6.34;77.98;99338.06;4970531;28;20039;-79
2021/05/05 00:48:03;;;;;;;6.45;1.20;;;;;;;6.40;77.47;99339.22;4970497;28;20378;-80
2021/05/05 00:50:29;;;;;;;8.18;1.20;;;;;;;6.39;78.35;99346.25;4991187;23;20051;-81
2021/05/05 00:52:54;;;;;;;6.80;1.20;;;;;;;6.36;77.59;99332.69;4958939;28;20046;-81
2021/05/05 00:55:20;;;;;;;7.18;1.27;;;;;;;6.37;76.36;99332.56;4961784;28;20089;-81
2021/05/05 00:57:50;;;;;;;11.07;1.27;;;;;;;6.30;77.25;99317.69;4956401;28;20461;-80
2021/05/05 01:00:21;;;;;;;10.35;1.45;;;;;;;6.38;77.26;99322.94;4935768;28;20046;-80
2021/05/05 01:02:47;;;;;;;5.13;1.60;;;;;;;6.40;78.56;99327.06;4950117;29;20118;-80
2021/05/05 01:05:14;;;;;;;6.53;0.90;;;;;;;6.45;77.61;99339.59;4928055;28;20035;-80
2021/05/05 01:07:40;;;;;;;5.05;1.08;;;;;;;6.51;76.47;99338.97;4955644;28;20421;-80
2021/05/05 01:10:11;;;;;;;10.90;1.90;;;;;;;6.44;77.52;99335.34;4958716;28;20050;-79
2021/05/05 01:12:38;;;;;;;5.97;1.20;;;;;;;6.53;77.16;99347.44;4951313;28;20055;-80
2021/05/05 01:15:06;;;;;;;5.15;1.10;;;;;;;6.47;78.13;99348.06;4940185;28;20051;-78
2021/05/05 01:17:33;;;;;;;5.40;1.13;;;;;;;6.44;77.67;99343.16;4956881;28;20063;-78
2021/05/05 01:19:59;;;;;;;6.28;1.00;;;;;;;6.51;77.27;99338.16;4941659;28;20229;-78
2021/05/05 01:22:24;;;;;;;6.35;1.20;;;;;;;6.53;77.65;99338.81;4957859;28;20481;-79
2021/05/05 01:24:50;;;;;;;7.20;1.20;;;;;;;6.46;78.36;99349.06;4929933;29;20490;-79
2021/05/05 01:27:16;;;;;;;9.15;1.30;;;;;;;6.46;78.17;99332.59;4948612;28;20035;-79
2021/05/05 01:29:43;;;;;;;6.20;1.20;;;;;;;6.44;77.56;99337.94;4952428;28;20047;-80
2021/05/05 01:32:12;;;;;;;5.55;1.30;;;;;;;6.24;79.04;99312.13;4939688;28;20047;-79
2021/05/05 01:34:38;;;;;;;6.70;1.30;;;;;;;6.34;78.98;99329.44;4938936;29;20039;-79
2021/05/05 01:37:05;;;;;;;8.05;1.42;;;;;;;6.26;78.83;99316.38;4940284;28;20105;-79
2021/05/05 01:39:32;;;;;;;5.78;1.25;;;;;;;6.42;77.72;99338.13;4958637;28;20050;-79
2021/05/05 01:41:58;;;;;;;10.40;1.02;;;;;;;6.39;78.61;99337.63;4940100;29;20110;-79
2021/05/05 01:44:36;;;;;;;5.88;1.38;;;;;;;6.31;78.10;99322.75;4936729;28;20047;-80
2021/05/05 01:47:04;;;;;;;5.47;1.20;;;;;;;6.28;78.77;99327.44;4957039;28;20086;-79
2021/05/05 01:49:31;;;;;;;5.05;1.13;;;;;;;6.22;79.16;99329.69;4937322;28;20050;-80
2021/05/05 01:52:02;;;;;;;5.78;1.10;;;;;;;6.28;77.66;99319.66;4955021;28;20070;-80
2021/05/05 01:54:28;;;;;;;2.53;0.70;;;;;;;6.21;79.24;99329.84;4945677;28;20043;-79
2021/05/05 01:57:24;;;;;;;6.32;1.10;;;;;;;6.28;78.01;99325.66;4940555;28;20066;-81
2021/05/05 01:59:55;;;;;;;6.88;0.90;;;;;;;6.26;78.64;99324.19;4942609;28;20047;-79
2021/05/05 02:02:22;;;;;;;7.32;1.00;;;;;;;6.23;78.06;99323.53;4952944;28;20054;-81
2021/05/05 02:04:48;;;;;;;5.10;1.15;;;;;;;6.22;77.61;99329.69;4954681;28;20069;-79
2021/05/05 02:07:40;;;;;;;2.85;0.75;;;;;;;6.25;77.26;99328.56;4949370;28;20051;-80
2021/05/05 02:10:12;;;;;;;5.43;1.17;;;;;;;6.23;77.92;99328.72;4938219;28;20129;-80
2021/05/05 02:12:40;;;;;;;5.28;0.82;;;;;;;6.15;79.37;99320.84;4955360;28;20063;-81
2021/05/05 02:15:08;;;;;;;6.75;1.80;;;;;;;6.20;78.73;99329.03;4948278;28;20054;-79
2021/05/05 02:17:35;;;;;;;7.25;1.08;;;;;;;6.20;78.23;99323.00;4936084;28;20125;-80
2021/05/05 02:20:00;;;;;;;7.03;1.05;;;;;;;6.13;78.20;99316.78;4975536;28;20058;-80
2021/05/05 02:22:26;;;;;;;6.00;0.90;;;;;;;6.02;78.66;99297.81;4976595;28;20108;-80
2021/05/05 02:24:52;;;;;;;5.82;0.98;;;;;;;6.13;78.98;99327.19;4981324;28;20050;-80
2021/05/05 02:27:18;;;;;;;3.63;0.93;;;;;;;6.18;78.77;99328.38;4960730;28;20050;-82
2021/05/05 02:29:44;;;;;;;7.70;1.17;;;;;;;6.08;78.58;99316.41;4966892;28;20047;-80
2021/05/05 02:32:40;;;;;;;7.93;1.00;;;;;;;6.16;79.62;99327.72;4948211;28;20039;-79
2021/05/05 02:35:08;;;;;;;6.63;1.20;;;;;;;6.06;79.37;99307.94;4949028;28;20058;-80
2021/05/05 02:37:35;;;;;;;8.95;1.23;;;;;;;6.13;79.16;99319.38;4938206;29;20052;-80
2021/05/05 02:40:01;;;;;;;6.07;1.35;;;;;;;6.12;79.33;99315.13;4963014;28;20058;-81
2021/05/05 02:42:28;;;;;;;7.50;1.20;;;;;;;6.11;78.47;99313.50;4947290;28;20114;-80
2021/05/05 02:44:54;;;;;;;6.38;0.98;;;;;;;6.11;78.04;99316.94;4940878;28;20042;-81
2021/05/05 02:47:23;;;;;;;10.32;1.30;;;;;;;6.06;78.20;99300.13;4957192;28;20047;-79
2021/05/05 02:49:49;;;;;;;2.63;1.00;;;;;;;6.09;77.89;99302.44;4943084;28;20058;-80
2021/05/05 02:52:16;;;;;;;4.35;0.95;;;;;;;6.11;78.82;99306.50;4964445;28;20046;-81
2021/05/05 02:54:41;;;;;;;5.30;1.00;;;;;;;6.03;79.06;99296.06;4951176;28;20046;-79
2021/05/05 02:57:07;;;;;;;4.22;1.00;;;;;;;6.09;78.34;99312.84;4968416;28;20058;-79
2021/05/05 02:59:34;;;;;;;6.20;0.98;;;;;;;6.01;78.56;99305.81;4966347;28;20078;-79
2021/05/05 03:02:00;;;;;;;8.13;1.40;;;;;;;5.96;79.29;99298.44;4963316;28;20050;-79
2021/05/05 03:04:26;;;;;;;4.30;1.10;;;;;;;5.87;79.50;99296.72;4947881;28;20050;-78
2021/05/05 03:06:52;;;;;;;5.95;1.27;;;;;;;6.00;78.58;99310.16;4943862;28;20047;-79
2021/05/05 03:09:25;;;;;;;5.28;1.10;;;;;;;6.06;78.75;99315.75;4957168;28;20075;-80
2021/05/05 03:11:52;;;;;;;4.50;1.50;;;;;;;6.04;79.71;99308.09;4951190;28;20672;-79
2021/05/05 03:14:17;;;;;;;12.75;1.13;;;;;;;6.00;79.04;99304.16;4961288;28;20043;-78
2021/05/05 03:16:43;;;;;;;8.90;1.35;;;;;;;5.99;78.34;99305.13;4960264;28;20095;-79
2021/05/05 03:19:08;;;;;;;5.88;1.23;;;;;;;5.98;79.57;99309.50;4945440;28;20043;-81
2021/05/05 03:21:38;;;;;;;7.55;1.63;;;;;;;5.92;80.33;99304.06;4954646;28;20114;-79
2021/05/05 03:24:06;;;;;;;4.40;1.15;;;;;;;5.93;79.43;99301.31;4958251;28;20111;-79
2021/05/05 03:26:32;;;;;;;9.73;1.58;;;;;;;5.94;79.04;99309.94;4960962;28;20517;-81
2021/05/05 03:28:57;;;;;;;7.68;1.10;;;;;;;5.94;77.64;99300.34;4933654;29;20106;-81
2021/05/05 03:31:23;;;;;;;7.70;1.42;;;;;;;5.94;79.07;99300.34;4938391;28;20074;-78
2021/05/05 03:33:49;;;;;;;7.47;1.40;;;;;;;5.94;78.87;99294.34;4959118;28;20126;-79
2021/05/05 03:36:14;;;;;;;7.72;1.45;;;;;;;5.92;78.98;99296.28;4965215;28;20043;-78
2021/05/05 03:38:40;;;;;;;8.23;1.35;;;;;;;5.91;79.35;99286.81;4954617;28;20043;-79
2021/05/05 03:41:05;;;;;;;7.03;1.20;;;;;;;5.93;78.79;99295.28;4953382;28;20046;-78
2021/05/05 03:43:31;;;;;;;7.75;1.50;;;;;;;5.90;78.90;99295.59;4942166;28;20138;-80
2021/05/05 03:45:56;;;;;;;4.30;1.17;;;;;;;5.85;79.99;99294.25;4974429;28;20139;-78
2021/05/05 03:48:24;;;;;;;8.88;1.10;;;;;;;5.91;78.96;99289.41;4949242;29;20039;-78
2021/05/05 03:50:52;;;;;;;7.95;1.15;;;;;;;5.93;78.04;99296.09;4942970;29;20047;-79
2021/05/05 03:53:17;;;;;;;5.72;1.20;;;;;;;5.88;78.91;99292.31;4937508;28;20401;-78
2021/05/05 03:55:43;;;;;;;8.55;1.50;;;;;;;5.94;78.40;99289.94;4994932;28;20054;-79
2021/05/05 03:58:09;;;;;;;6.10;1.42;;;;;;;5.99;77.80;99287.72;4980587;28;20046;-80
2021/05/05 04:00:34;;;;;;;8.63;1.35;;;;;;;5.87;77.51;99280.28;4966728;28;20043;-79
2021/05/05 04:03:00;;;;;;;6.07;1.10;;;;;;;5.90;78.55;99287.81;4974558;28;20047;-78
2021/05/05 04:05:25;;;;;;;8.48;1.40;;;;;;;5.85;78.16;99272.63;4965906;28;20101;-78
2021/05/05 04:07:51;;;;;;;6.43;1.13;;;;;;;5.95;78.19;99301.16;4964864;28;20133;-79
2021/05/05 04:10:17;;;;;;;8.10;1.25;;;;;;;5.91;78.87;99294.63;4947330;28;20516;-78
2021/05/05 04:12:42;;;;;;;5.53;1.27;;;;;;;5.85;79.57;99290.84;4945651;29;20051;-80
2021/05/05 04:15:08;;;;;;;6.70;1.27;;;;;;;5.87;79.84;99288.91;4966137;28;20440;-80
2021/05/05 04:17:34;;;;;;;6.10;1.42;;;;;;;5.77;79.95;99275.19;4970738;28;20050;-80
2021/05/05 04:19:59;;;;;;;6.50;1.35;;;;;;;5.81;79.55;99286.91;4964599;28;20143;-80
2021/05/05 04:22:27;;;;;;;4.57;1.02;;;;;;;5.88;79.64;99298.34;4946366;28;20045;-79
2021/05/05 04:24:52;;;;;;;9.55;1.45;;;;;;;5.80;79.20;99283.50;4998011;28;20046;-80
2021/05/05 04:27:18;;;;;;;5.82;1.30;;;;;;;5.85;79.62;99302.06;4982447;28;20089;-79
2021/05/05 04:29:44;;;;;;;11.70;1.35;;;;;;;5.90;77.75;99291.22;4964411;28;20046;-80
2021/05/05 04:32:12;;;;;;;8.18;1.13;;;;;;;5.92;78.26;99304.88;4990086;28;20378;-78
2021/05/05 04:34:38;;;;;;;7.25;1.30;;;;;;;5.88;80.12;99311.38;4987122;28;20111;-80
2021/05/05 04:37:06;;;;;;;6.93;1.58;;;;;;;5.87;79.98;99309.72;4992086;28;20077;-79
2021/05/05 04:39:33;;;;;;;6.60;1.50;;;;;;;5.81;80.16;99315.53;4978899;28;20047;-81
2021/05/05 04:41:59;;;;;;;8.25;1.38;;;;;;;5.78;80.30;99303.66;4964615;28;20121;-79
2021/05/05 04:44:24;;;;;;;7.88;1.67;;;;;;;5.84;79.77;99310.03;4961407;28;20136;-80
2021/05/05 04:46:50;;;;;;;12.68;1.70;;;;;;;5.83;80.70;99309.19;4986326;28;20047;-81
2021/05/05 04:49:16;;;;;;;8.48;1.27;;;;;;;5.79;80.12;99309.66;4994878;28;20511;-79
2021/05/05 04:51:41;;;;;;;9.57;1.20;;;;;;;5.80;80.74;99309.53;4990796;28;20263;-78
2021/05/05 04:54:07;;;;;;;8.32;1.52;;;;;;;5.78;81.06;99306.25;5004410;28;20049;-83
2021/05/05 04:56:34;;;;;;;15.20;1.67;;;;;;;5.83;79.08;99303.19;4982418;28;20046;-79
2021/05/05 04:59:00;;;;;;;8.10;1.33;;;;;;;5.85;79.46;99320.28;4975610;28;20035;-78
2021/05/05 05:01:26;;;;;;;14.00;1.70;;;;;;;5.85;79.52;99316.88;4972224;28;20406;-79
2021/05/05 05:03:52;;;;;;;8.93;1.50;;;;;;;5.84;79.78;99320.44;4965471;28;20059;-81
2021/05/05 05:06:17;;;;;;;11.18;1.35;;;;;;;5.80;80.30;99306.91;5001586;28;20038;-78
2021/05/05 05:08:43;;;;;;;7.03;1.60;;;;;;;5.88;78.92;99310.53;4981598;28;20575;-81
2021/05/05 05:11:08;;;;;;;4.28;1.20;;;;;;;5.88;78.67;99311.38;4979300;28;20477;-81
2021/05/05 05:13:34;;;;;;;11.15;1.55;;;;;;;5.88;78.84;99316.56;4968680;28;20075;-81
2021/05/05 05:15:59;;;;;;;11.32;1.27;;;;;;;5.98;79.23;99326.91;4980074;28;20062;-80
2021/05/05 05:18:25;;;;;;;7.25;1.35;;;;;;;5.96;78.79;99308.03;4978375;28;20035;-79
2021/05/05 05:20:51;;;;;;;11.77;1.77;;;;;;;6.06;77.86;99315.75;4979754;28;20055;-79
2021/05/05 05:23:17;;;;;;;8.65;1.70;;;;;;;6.10;77.50;99330.09;4977717;28;20097;-79
2021/05/05 05:25:42;;;;;;;7.57;1.25;;;;;;;6.12;77.15;99326.38;4990685;28;20050;-80
2021/05/05 05:28:08;;;;;;;6.28;1.42;;;;;;;6.07;77.37;99331.22;4977135;28;20054;-79
2021/05/05 05:30:34;;;;;;;9.45;1.63;;;;;;;6.03;78.33;99327.28;4975223;28;20082;-79
2021/05/05 05:32:59;;;;;;;8.50;1.85;;;;;;;6.01;78.94;99331.84;4976853;28;20062;-78
2021/05/05 05:35:25;;;;;;;11.27;1.45;;;;;;;6.08;77.94;99330.22;4984018;28;20042;-81
2021/05/05 05:37:51;;;;;;;6.90;1.50;;;;;;;6.12;78.50;99339.41;4966043;28;20050;-79
2021/05/05 05:40:17;;;;;;;8.52;1.20;;;;;;;6.14;78.69;99336.63;4954083;28;20047;-80
2021/05/05 05:42:44;;;;;;;5.75;1.42;;;;;;;6.13;79.62;99342.81;4958887;28;20509;-80
2021/05/05 05:45:11;;;;;;;8.75;1.52;;;;;;;6.12;80.48;99341.16;4986136;28;20043;-80
2021/05/05 05:47:38;;;;;;;11.98;1.45;;;;;;;6.10;80.35;99350.91;4987152;28;20416;-79
2021/05/05 05:50:05;;;;;;;5.60;1.30;;;;;;;6.07;79.09;99340.81;4975167;28;20050;-79
2021/05/05 05:52:31;;;;;;;4.50;1.40;;;;;;;5.99;79.51;99339.78;4978387;28;20547;-80
2021/05/05 05:54:57;;;;;;;7.25;1.70;;;;;;;6.08;80.71;99345.03;4998065;28;20031;-80
2021/05/05 05:57:24;;;;;;;10.45;1.52;;;;;;;6.12;79.67;99351.56;4975639;28;20050;-79
2021/05/05 05:59:50;;;;;;;7.35;1.70;;;;;;;6.17;79.45;99344.13;4979460;28;20349;-80
2021/05/05 06:02:16;;;;;;;7.18;1.40;;;;;;;6.24;80.79;99350.38;4986399;28;20409;-80
2021/05/05 06:04:42;;;;;;;8.45;1.63;;;;;;;6.30;79.25;99346.34;4970073;28;20046;-80
2021/05/05 06:07:07;;;;;;;7.85;1.90;;;;;;;6.38;78.23;99341.19;4999294;28;20038;-79
2021/05/05 06:09:33;;;;;;;8.13;1.55;;;;;;;6.43;79.11;99342.34;4981541;28;20059;-81
2021/05/05 06:11:59;;;;;;;7.97;1.65;;;;;;;6.46;78.02;99348.22;4970088;28;20057;-80
2021/05/05 06:14:25;;;;;;;7.18;1.60;;;;;;;6.47;78.81;99347.25;4959087;28;20401;-80
2021/05/05 06:16:51;;;;;;;9.18;1.88;;;;;;;6.41;76.41;99339.09;4989608;28;20048;-80
2021/05/05 06:19:16;;;;;;;9.90;1.55;;;;;;;6.37;75.92;99348.19;4983775;28;20078;-80
2021/05/05 06:21:42;;;;;;;7.35;1.40;;;;;;;6.39;75.45;99345.44;4963581;28;20043;-80
2021/05/05 06:24:08;;;;;;;5.18;1.55;;;;;;;6.43;75.40;99347.56;4994094;28;20468;-80
2021/05/05 06:26:33;;;;;;;9.75;1.73;;;;;;;6.52;76.40;99345.03;4996909;28;20051;-80
2021/05/05 06:28:59;;;;;;;5.65;1.33;;;;;;;6.54;77.42;99354.31;5001334;28;20607;-80
2021/05/05 06:31:25;;;;;;;8.35;1.23;;;;;;;6.55;75.77;99345.50;4973492;28;20051;-80
2021/05/05 06:33:51;;;;;;;10.27;1.67;;;;;;;6.40;75.95;99340.06;5000124;28;20137;-79
2021/05/05 06:36:17;;;;;;;9.15;1.63;;;;;;;6.36;76.52;99358.75;4980528;28;20062;-79
2021/05/05 06:38:42;;;;;;;8.85;1.40;;;;;;;6.33;77.14;99352.06;4991109;28;20038;-79
2021/05/05 06:41:08;;;;;;;9.93;1.60;;;;;;;6.40;77.75;99357.47;4991267;28;20050;-79
2021/05/05 06:43:33;;;;;;;13.32;2.00;;;;;;;6.39;76.21;99356.66;4991252;28;20046;-80
2021/05/05 06:46:00;;;;;;;6.25;1.60;;;;;;;6.52;76.49;99361.47;4983541;28;20101;-78
2021/05/05 06:48:27;;;;;;;8.77;1.70;;;;;;;6.59;77.85;99359.88;4971605;28;20065;-79
2021/05/05 06:50:53;;;;;;;14.75;2.35;;;;;;;6.55;76.72;99371.56;4969371;28;20050;-81
2021/05/05 06:53:18;;;;;;;8.23;1.42;;;;;;;6.45;76.38;99355.22;4984981;28;20502;-81
2021/05/05 06:55:44;;;;;;;10.07;1.85;;;;;;;6.40;77.56;99368.72;4977763;28;20516;-80
2021/05/05 06:58:10;;;;;;;7.82;1.42;;;;;;;6.35;79.67;99370.16;4981274;28;20473;-80
2021/05/05 07:00:35;;;;;;;8.10;1.70;;;;;;;6.27;80.26;99383.09;4972620;28;20100;-79
2021/05/05 07:03:01;;;;;;;9.75;1.58;;;;;;;6.19;81.00;99392.47;4964802;28;20079;-79
2021/05/05 07:05:26;;;;;;;5.38;1.40;;;;;;;6.15;80.99;99390.34;4972496;28;20199;-78
2021/05/05 07:07:52;;;;;;;9.13;1.98;;;;;;;6.17;82.05;99391.00;4966689;28;20058;-78
2021/05/05 07:10:17;;;;;;;6.63;1.50;;;;;;;6.17;82.30;99397.03;5006400;28;20042;-80
2021/05/05 07:12:43;;;;;;;6.18;1.60;;;;;;;6.02;81.89;99396.72;4964654;28;20057;-80
2021/05/05 07:15:09;;;;;;;4.85;1.77;;;;;;;5.99;82.84;99402.25;4971911;28;20494;-80
2021/05/05 07:17:35;;;;;;;7.55;1.65;;;;;;;5.98;83.75;99394.59;5000774;28;20409;-80
2021/05/05 07:20:00;;;;;;;7.60;2.08;;;;;;;5.99;84.27;99397.06;4995021;28;20054;-79
2021/05/05 07:22:27;;;;;;;11.20;1.90;;;;;;;6.00;86.26;99403.06;4975238;28;20062;-78
2021/05/05 07:24:53;;;;;;;7.00;1.35;;;;;;;6.01;84.94;99412.53;4989131;28;20043;-79
2021/05/05 07:27:19;;;;;;;7.57;1.80;;;;;;;5.93;86.02;99405.41;4984254;28;20069;-80
2021/05/05 07:29:44;;;;;;;6.90;2.25;;;;;;;5.95;85.93;99402.66;4982944;28;20649;-80
2021/05/05 07:32:10;;;;;;;6.20;1.80;;;;;;;5.99;87.46;99410.06;4968651;28;20117;-80
2021/05/05 07:34:39;;;;;;;14.32;2.95;;;;;;;5.99;88.03;99432.66;4976421;28;20537;-80
2021/05/05 07:37:11;;;;;;;12.00;2.03;;;;;;;5.87;85.84;99424.22;4974090;28;20051;-79
2021/05/05 07:40:17;;;;;;;11.88;2.63;;;;;;;5.81;87.69;99415.22;4965529;28;20059;-79
2021/05/05 07:43:19;;;;;;;5.95;1.35;;;;;;;5.75;87.90;99418.44;5004969;28;20489;-79
2021/05/05 07:47:58;;;;;;;5.97;1.10;;;;;;;5.73;86.54;99415.16;5001152;28;20113;-79
2021/05/05 07:50:24;;;;;;;7.13;1.58;;;;;;;5.70;85.96;99415.44;4978301;28;20121;-79
2021/05/05 07:52:51;;;;;;;9.55;1.60;;;;;;;5.70;85.87;99414.63;4963845;28;20131;-80
2021/05/05 07:55:16;;;;;;;8.75;1.60;;;;;;;5.70;88.06;99428.44;4977002;28;20054;-79
2021/05/05 07:57:43;;;;;;;7.13;1.60;;;;;;;5.78;87.38;99432.91;4963324;28;20399;-80
2021/05/05 08:00:11;;;;;;;9.40;1.55;;;;;;;5.74;85.99;99418.56;4959637;28;20665;-82
2021/05/05 08:02:42;;;;;;;9.23;1.98;;;;;;;5.78;86.65;99425.09;4981340;28;20188;-81
2021/05/05 08:05:08;;;;;;;8.30;2.15;;;;;;;5.89;87.29;99429.28;4965726;28;20122;-81
2021/05/05 08:07:34;;;;;;;9.95;2.08;;;;;;;5.99;87.86;99425.69;4945961;28;20066;-81
2021/05/05 08:09:59;;;;;;;7.40;1.85;;;;;;;6.02;87.37;99425.38;4967007;28;20042;-80
2021/05/05 08:12:25;;;;;;;6.15;2.10;;;;;;;6.08;85.57;99436.97;4968803;28;20051;-80
2021/05/05 08:14:51;;;;;;;9.73;2.58;;;;;;;6.10;86.79;99435.03;4950051;28;20046;-79
2021/05/05 08:17:18;;;;;;;16.27;2.47;;;;;;;6.08;84.40;99429.16;4976600;28;20046;-82
2021/05/05 08:19:44;;;;;;;12.45;2.70;;;;;;;6.12;85.49;99433.13;4958464;28;20038;-82
2021/05/05 08:22:10;;;;;;;10.70;2.05;;;;;;;6.21;84.66;99440.00;4974398;28;20070;-81
2021/05/05 08:24:37;;;;;;;16.77;2.38;;;;;;;6.28;85.53;99439.44;4982928;28;20418;-81
2021/05/05 08:27:02;;;;;;;10.32;2.47;;;;;;;6.52;85.61;99441.41;4957811;28;20058;-81
2021/05/05 08:29:28;;;;;;;10.60;2.53;;;;;;;6.59;84.16;99432.81;4988281;28;20050;-81
2021/05/05 08:31:55;;;;;;;13.68;2.33;;;;;;;6.76;83.30;99441.56;4975796;28;20046;-80
2021/05/05 08:34:22;;;;;;;11.52;2.30;;;;;;;6.65;81.62;99439.22;4937420;28;20051;-81
2021/05/05 08:36:48;;;;;;;12.43;1.77;;;;;;;6.71;82.93;99435.19;4952794;29;20047;-79
2021/05/05 08:39:14;;;;;;;12.23;2.22;;;;;;;6.70;82.66;99446.56;4972354;28;20039;-80
2021/05/05 08:41:41;;;;;;;13.45;2.22;;;;;;;6.65;80.83;99443.59;4970113;28;20050;-79
2021/05/05 08:44:15;;;;;;;9.85;2.08;;;;;;;6.63;82.43;99441.16;4980044;28;20066;-80
2021/05/05 08:46:43;;;;;;;12.82;1.90;;;;;;;6.62;82.40;99452.53;4953007;28;20054;-80
2021/05/05 08:49:10;;;;;;;10.70;2.03;;;;;;;6.54;82.09;99465.50;4977365;28;20050;-80
2021/05/05 08:51:36;;;;;;;14.02;2.53;;;;;;;6.53;82.74;99469.88;4986089;28;20050;-81
2021/05/05 08:54:03;;;;;;;9.15;1.77;;;;;;;6.46;83.71;99461.06;4983131;23;20069;-76
2021/05/05 08:56:36;;;;;;;13.98;2.40;;;;;;;6.52;84.65;99465.66;4999584;28;20053;-75
2021/05/05 08:59:42;;;;;;;15.68;2.60;;;;;;;6.45;85.03;99469.84;5087769;27;20774;-73
2021/05/05 09:02:08;;;;;;;12.55;2.25;;;;;;;6.48;85.92;99466.94;5048337;28;20060;-72
2021/05/05 09:04:36;;;;;;;13.55;2.42;;;;;;;6.49;83.87;99471.16;5069217;28;20099;-72
2021/05/05 09:07:01;;;;;;;14.60;2.42;;;;;;;6.56;85.50;99474.81;5075071;28;20046;-72
2021/05/05 09:09:36;;;;;;;10.55;2.83;;;;;;;6.57;85.45;99486.88;5059584;28;20053;-74
2021/05/05 09:12:11;;;;;;;8.88;2.08;;;;;;;6.52;84.62;99485.69;5069310;28;20044;-72
2021/05/05 09:14:48;;;;;;;16.95;2.80;;;;;;;6.53;86.29;99488.13;5058730;28;20485;-72
2021/05/05 09:17:18;;;;;;;12.93;2.35;;;;;;;6.47;85.41;99493.13;5044596;28;20210;-73
2021/05/05 09:19:44;;;;;;;12.98;2.28;;;;;;;6.47;86.29;99503.56;5054162;28;20413;-73
2021/05/05 09:22:10;;;;;;;9.15;2.33;;;;;;;6.51;83.89;99499.69;5053324;28;20045;-72
2021/05/05 09:24:38;;;;;;;11.02;2.08;;;;;;;6.53;85.21;99518.56;5065370;28;20048;-73
2021/05/05 09:27:08;;;;;;;14.45;2.35;;;;;;;6.63;85.12;99516.72;5044991;28;20052;-72
2021/05/05 09:29:52;;;;;;;14.70;2.03;;;;;;;6.74;85.52;99508.66;5051757;28;20505;-72
2021/05/05 09:32:19;;;;;;;13.38;2.58;;;;;;;6.82;84.95;99526.97;5056914;28;21332;-72
2021/05/05 09:35:03;;;;;;;13.35;2.00;;;;;;;6.89;84.48;99529.75;5057843;28;20493;-72
2021/05/05 09:37:29;;;;;;;10.73;1.83;;;;;;;6.89;86.26;99537.56;5027159;28;20391;-72
2021/05/05 09:40:00;;;;;;;6.22;1.50;;;;;;;6.80;84.07;99528.09;5025814;28;20056;-73
2021/05/05 09:42:29;;;;;;;9.40;1.60;;;;;;;6.86;86.76;99534.47;5062327;28;20048;-73
2021/05/05 09:44:56;;;;;;;10.73;1.90;;;;;;;6.96;84.60;99524.75;5059402;28;20041;-72
2021/05/05 09:47:22;;;;;;;8.30;1.60;;;;;;;7.20;85.50;99534.53;5061346;28;20489;-74
2021/05/05 09:49:47;;;;;;;9.00;1.80;;;;;;;7.16;82.52;99531.41;5047547;28;20107;-73
2021/05/05 09:52:19;;;;;;;7.55;1.60;;;;;;;7.35;85.30;99540.81;5043858;28;20048;-72
2021/05/05 09:54:59;;;;;;;7.53;1.40;;;;;;;7.60;84.37;99538.31;5064250;28;20135;-72
2021/05/05 09:57:30;;;;;;;8.60;1.55;;;;;;;7.74;82.49;99536.91;5056314;28;20066;-72
2021/05/05 09:59:58;;;;;;;10.23;2.05;;;;;;;7.62;80.44;99536.38;5056884;28;20079;-74
2021/05/05 10:02:25;;;;;;;11.65;1.70;;;;;;;7.71;82.32;99530.22;5043804;28;20182;-73
2021/05/05 10:05:09;;;;;;;14.10;2.17;;;;;;;7.98;82.63;99526.53;5043462;28;20033;-72
2021/05/05 10:07:54;;;;;;;14.07;2.60;;;;;;;8.44;80.84;99513.09;5046664;28;20037;-73
2021/05/05 10:10:21;;;;;;;10.40;2.08;;;;;;;8.74;79.07;99521.28;5044952;28;20831;-73
2021/05/05 10:12:48;;;;;;;8.77;1.83;;;;;;;8.96;75.48;99511.91;5027122;28;20110;-73
2021/05/05 10:15:15;;;;;;;10.05;1.75;;;;;;;9.22;75.69;99527.38;5042522;28;20826;-73
2021/05/05 10:17:45;;;;;;;11.30;1.98;;;;;;;9.06;76.84;99519.56;5037029;28;20114;-72
2021/05/05 10:20:15;;;;;;;8.00;1.70;;;;;;;9.01;77.26;99525.31;5047660;28;20667;-73
2021/05/05 10:22:41;;;;;;;11.40;1.95;;;;;;;8.52;74.34;99539.22;5048423;28;20522;-73
2021/05/05 10:25:07;;;;;;;10.15;1.90;;;;;;;8.22;75.55;99542.44;5033074;28;20524;-73
2021/05/05 10:27:33;;;;;;;9.60;1.92;;;;;;;7.88;78.36;99556.38;5028585;28;20140;-73
2021/05/05 10:30:00;;;;;;;8.27;1.70;;;;;;;7.76;80.64;99555.81;5059341;28;20127;-73
2021/05/05 10:32:31;;;;;;;9.43;2.17;;;;;;;7.46;80.93;99562.38;5048728;28;20045;-73
2021/05/05 10:34:57;;;;;;;6.43;1.55;;;;;;;7.23;82.72;99560.28;5050561;28;20105;-73
2021/05/05 10:37:40;;;;;;;9.95;1.58;;;;;;;7.46;82.76;99570.19;5048634;28;20168;-72
2021/05/05 10:40:23;;;;;;;7.55;1.60;;;;;;;7.74;81.33;99565.59;5044177;28;20106;-72
2021/05/05 10:42:52;;;;;;;7.60;1.10;;;;;;;7.90;80.31;99552.63;5045189;28;20127;-74
2021/05/05 10:45:32;;;;;;;11.23;1.58;;;;;;;7.83;78.98;99559.44;5031836;28;20079;-74
2021/05/05 10:48:18;;;;;;;5.68;1.20;;;;;;;7.99;78.46;99569.94;5068326;28;20048;-73
2021/05/05 10:50:54;;;;;;;6.47;1.40;;;;;;;8.11;78.31;99565.25;5068103;28;20708;-74
2021/05/05 10:53:39;;;;;;;7.07;1.40;;;;;;;8.35;77.34;99568.91;5064351;28;20564;-73
2021/05/05 10:56:23;;;;;;;10.88;1.80;;;;;;;8.56;75.62;99568.47;5040761;28;20513;-72
2021/05/05 10:59:08;;;;;;;11.90;1.45;;;;;;;8.77;75.56;99567.97;5059939;28;20045;-73
2021/05/05 11:01:37;;;;;;;12.07;1.95;;;;;;;8.85;73.30;99557.50;5048076;28;20048;-74
2021/05/05 11:04:03;;;;;;;7.82;1.30;;;;;;;8.92;73.77;99561.13;5048531;28;20077;-73
2021/05/05 11:06:29;;;;;;;7.43;1.70;;;;;;;8.85;74.19;99572.38;5062440;28;20136;-73
2021/05/05 11:08:56;;;;;;;6.72;1.45;;;;;;;8.62;73.56;99559.16;5029001;28;20063;-74
2021/05/05 11:11:41;;;;;;;7.82;1.40;;;;;;;8.33;73.92;99555.19;5010955;28;20038;-74
2021/05/05 11:14:07;;;;;;;8.93;1.10;;;;;;;8.33;73.95;99557.81;5047858;28;20128;-75
2021/05/05 11:16:52;;;;;;;6.45;1.10;;;;;;;8.61;73.70;99576.66;5055087;28;20474;-73
2021/05/05 11:19:41;;;;;;;3.83;0.75;;;;;;;8.76;72.00;99575.03;5047076;28;20586;-73
2021/05/05 11:22:18;;;;;;;4.55;0.85;;;;;;;8.82;73.75;99578.78;5071143;28;20053;-74
2021/05/05 11:24:48;;;;;;;6.25;0.93;;;;;;;8.38;74.52;99587.69;5050553;28;20414;-73
2021/05/05 11:27:16;;;;;;;3.15;0.95;;;;;;;8.10;77.09;99589.75;5041449;28;20099;-73
2021/05/05 11:29:49;;;;;;;1.80;0.60;;;;;;;7.86;78.10;99600.09;5044404;28;20045;-74
2021/05/05 11:32:16;;;;;;;4.00;0.80;;;;;;;7.73;78.80;99597.91;5050536;28;20460;-73
2021/05/05 11:34:46;;;;;;;2.17;0.70;;;;;;;7.74;79.87;99596.94;5053459;28;20055;-73
2021/05/05 11:37:20;;;;;;;1.48;0.63;;;;;;;7.65;82.57;99601.31;5042486;28;20055;-73
2021/05/05 11:39:56;;;;;;;6.40;1.00;;;;;;;7.78;81.55;99613.94;5050374;28;20139;-73
2021/05/05 11:42:24;;;;;;;1.80;0.70;;;;;;;8.27;81.52;99621.97;5047488;28;20045;-75
2021/05/05 11:44:52;;;;;;;3.17;0.63;;;;;;;8.73;80.45;99626.81;5049952;28;20045;-75
2021/05/05 11:47:26;;;;;;;1.63;0.57;;;;;;;8.76;76.84;99621.28;5031662;28;20479;-74